ADDS TAF Board (Experimental) INFO

IDs: Format: Expanded Condensed

Updated at: 1653 UTC 27 Jan 2015

KDFW - Dallas-Ft Worth Intl, TX, US

Issued at 1501 UTC 27 Jan 2015
Time1553Z27/17Z27/18Z27/19Z27/20Z27/21Z27/22Z27/23Z28/00Z28/01Z28/02Z28/03Z28/04Z28/05Z
TypeOBSPRVLPRVLPRVLPRVLPRVLPRVLPRVLPRVLPRVLPRVLPRVLPRVLPRVL
VIS10>6>6>6>6>6>6>6>6>6>6>6>6>6
CIG----------------------------
CoverFEWSCTSCTSCTSCTSCTSCTSCTSCTSCTSCTSCTSCTSCT
FltCat--VFRVFRVFRVFRVFRVFRVFRVFRVFRVFRVFRVFRVFR
WX----------------------------
WDir340320320320320320320320320320160160160160
WSpd73333333336666
WGst----------------------------
R13/31
XWnd3000000000-3-3-3-3
HWnd-6-3-3-3-3-3-3-3-3-35555
R17/35
XWnd-2-2-2-2-2-2-2-2-2-22222
HWnd-7-2-2-2-2-2-2-2-2-26666
R18/36
XWnd-2-2-2-2-2-2-2-2-2-22222
HWnd-7-2-2-2-2-2-2-2-2-26666
Raw TAF
KDFW 271501Z 2715/2818 32003KT P6SM SCT300
  FM280200 16006KT P6SM SCT300


Raw METAR
KDFW 271553Z 34007KT 10SM FEW300 16/04 A3018 RMK AO2 SLP217 T01560039

TAF Board Legend

Hazard VFR MVFR IFR LIFR
Visibility (sm) >5 3≤X≤5 1≤X<3 <1
Ceiling (100 ft) >30 10≤X≤30 5≤X<10 <5
Wind Speed (kt) <10 10≤X<20 20≤X<30 ≥30
Wind Gust (kt) <15 15≤X<25 25≤X<35 ≥35
Weather No Wx Reported VCTS,-TS,-FZRA TS,FZRA +TS,+FZRA


Page loaded:  16:53 UTC  |   08:53 AM Pacific  |   09:53 AM Mountain  |   10:53 AM Central  |   11:53 AM Eastern

 

ADVISORIES

FORECASTS

FORECASTS

OBSERVATIONS

USER TOOLS

ABOUT US